Stations météo

réclame
Mon MeteoGroup
Cerezo De Arriba, Espagne (8143): Température de l'air & dewpoint: 17.04.2018 03:00:00 - 23.04.2018 03:00:00 (CEST)Cerezo De Arriba, Espagne (8143): Vitesse du vent & gusts: 17.04.2018 03:00:00 - 23.04.2018 03:00:00 (CEST)Cerezo De Arriba, Espagne (8143): Direction du vent: 17.04.2018 03:00:00 - 23.04.2018 03:00:00 (CEST)Cerezo De Arriba, Espagne (8143): visibility: 17.04.2018 03:00:00 - 23.04.2018 03:00:00 (CEST)Cerezo De Arriba, Espagne (8143): Ensoleillement: 17.04.2018 03:00:00 - 23.04.2018 03:00:00 (CEST)Cerezo De Arriba, Espagne (8143): Quantités de précipitations: 17.04.2018 03:00:00 - 23.04.2018 03:00:00 (CEST)
Date & Time tt [°C] td [°C] ff [km/h] ff [knt] fx [km/h] fx [knt] dd vv [km] sd [min] rr [mm]
23.04.2018 03:00:00 9,2 3,8 39 21 56 30 S 20 0 0,0
23.04.2018 02:00:00 9,8 3,3 35 19 58 31 S 20 0 -
23.04.2018 01:00:00 10,2 3,5 30 16 57 31 S 20 0 0,0
23.04.2018 00:00:00 10,2 3,5 32 17 46 25 S 20 0 0,0
22.04.2018 23:00:00 10,3 3,6 35 19 45 24 SSE 20 0 0,0
22.04.2018 22:00:00 9,0 2,6 25 14 32 17 SSE 20 0 0,0
22.04.2018 21:00:00 9,5 3,1 24 13 30 16 S 20 0 0,0
22.04.2018 20:00:00 8,9 2,7 10 5 24 13 S 20 3 -
22.04.2018 19:00:00 10,3 4,0 9 5 33 18 S 20 19 0,0
22.04.2018 18:00:00 12,5 4,2 19 10 40 21 SSE 20 34 0,0
22.04.2018 17:00:00 12,8 4,5 8 5 45 24 N 20 19 0,0
22.04.2018 16:00:00 11,4 4,6 13 7 44 24 W 20 0 0,1
22.04.2018 15:00:00 13,9 3,7 7 4 34 19 E 13 15 0,0
22.04.2018 14:00:00 12,7 5,9 6 3 20 11 N 20 48 -
22.04.2018 13:00:00 11,5 5,6 3 2 13 7 S 20 43 0,0
22.04.2018 12:00:00 11,4 4,2 6 4 13 7 S 20 60 0,0
22.04.2018 11:00:00 9,1 4,7 4 2 13 7 SSE 17 60 0,0
22.04.2018 10:00:00 10,5 4,2 2 1 15 8 ESE 13 58 0,0
22.04.2018 09:00:00 6,7 3,0 6 4 14 8 S 20 0 0,0
22.04.2018 08:00:00 5,8 3,1 6 3 16 9 SE 19 0 -
22.04.2018 07:00:00 5,3 3,3 11 6 17 9 SW 20 0 0,0
22.04.2018 06:00:00 7,1 3,0 7 4 23 13 SW 20 0 0,0
22.04.2018 05:00:00 8,1 2,6 9 5 21 11 SSW 20 0 0,0
22.04.2018 04:00:00 7,7 3,0 20 11 49 26 S 20 0 0,0
22.04.2018 03:00:00 7,9 2,6 29 16 54 29 S 20 0 0,0
22.04.2018 02:00:00 7,6 3,1 41 22 69 37 S 20 0 -
22.04.2018 01:00:00 7,4 3,3 46 25 67 36 S 20 0 0,0
22.04.2018 00:00:00 7,9 3,0 42 23 53 29 S 20 0 0,0
21.04.2018 23:00:00 8,5 3,0 33 18 46 25 S 20 0 0,0
21.04.2018 22:00:00 7,7 2,2 29 16 47 25 S 20 0 0,0
21.04.2018 21:00:00 8,2 2,2 40 22 62 33 S 20 0 0,0
21.04.2018 20:00:00 8,6 1,8 48 26 68 37 S 20 0 -
21.04.2018 19:00:00 10,7 -1,6 42 23 62 34 S 20 0 0,0
21.04.2018 18:00:00 9,2 0,4 39 21 64 35 S 20 38 0,0
21.04.2018 17:00:00 8,3 1,0 45 25 78 42 S 20 5 0,0
21.04.2018 16:00:00 9,3 -2,3 35 19 46 25 S 20 0 0,0
21.04.2018 15:00:00 9,9 -1,1 13 7 42 23 SSE 20 0 0,0
21.04.2018 14:00:00 9,0 -4,5 27 15 68 37 S 20 0 -
21.04.2018 13:00:00 7,7 -1,0 48 26 75 41 S 20 8 0,0
21.04.2018 12:00:00 6,8 -0,9 54 29 82 44 S 20 15 0,0
21.04.2018 11:00:00 5,8 1,2 63 34 83 45 S 19 45 0,0
21.04.2018 10:00:00 7,0 -1,9 57 31 79 43 S 20 55 0,0
21.04.2018 09:00:00 6,1 -1,3 60 32 77 42 S 20 0 0,0
21.04.2018 08:00:00 8,1 -4,0 53 28 66 36 S 20 0 -
21.04.2018 07:00:00 6,3 -1,6 51 27 67 36 S 20 0 0,0
21.04.2018 06:00:00 6,6 -1,8 49 26 68 37 S 20 0 0,0
21.04.2018 05:00:00 5,4 0,8 52 28 76 41 S 20 0 0,0
21.04.2018 04:00:00 4,9 2,3 50 27 75 40 S 20 0 0,0
21.04.2018 03:00:00 4,9 2,6 49 27 72 39 S 20 0 0,0
21.04.2018 02:00:00 5,2 1,9 46 25 86 47 S 20 0 -
21.04.2018 01:00:00 5,7 2,0 44 24 82 45 S 20 0 0,0
21.04.2018 00:00:00 6,6 2,7 36 19 92 50 S 20 0 0,0
20.04.2018 23:00:00 6,8 3,4 27 15 72 39 S 20 0 0,0
20.04.2018 22:00:00 8,4 2,0 14 7 61 33 SW 20 0 0,0
20.04.2018 21:00:00 8,8 1,7 16 8 58 32 E 20 1 0,0
20.04.2018 20:00:00 10,0 2,4 22 12 52 28 SSE 20 46 -
20.04.2018 19:00:00 10,6 2,5 16 9 45 25 NNW 20 56 0,0
20.04.2018 18:00:00 11,0 2,6 15 8 54 29 S 20 58 0,0
20.04.2018 17:00:00 10,4 2,3 25 14 57 31 S 20 60 0,0
20.04.2018 16:00:00 10,4 1,8 31 17 79 43 S 20 60 0,0
20.04.2018 15:00:00 9,3 1,2 40 21 79 43 S 20 60 0,0
20.04.2018 14:00:00 8,4 1,3 42 23 80 43 S 20 60 -
20.04.2018 13:00:00 7,8 0,8 34 18 87 47 S 20 59 0,0
20.04.2018 12:00:00 6,8 1,9 38 21 69 38 S 20 60 0,0
20.04.2018 11:00:00 6,5 0,6 33 18 63 34 S 20 60 0,0
20.04.2018 10:00:00 5,3 0,3 29 16 62 33 S 20 34 0,0
20.04.2018 09:00:00 5,8 0,2 27 14 67 36 S 20 0 0,0
20.04.2018 08:00:00 5,9 0,5 19 10 56 30 S 20 0 -
20.04.2018 07:00:00 5,9 0,5 36 19 64 35 S 20 0 0,0
20.04.2018 06:00:00 5,5 1,3 29 16 93 50 S 20 0 0,0
20.04.2018 05:00:00 5,4 1,9 29 16 88 47 S 20 0 0,0
20.04.2018 04:00:00 5,5 2,3 40 22 59 32 S 20 0 0,0
20.04.2018 03:00:00 7,3 1,2 17 9 59 32 S 20 0 0,0
20.04.2018 02:00:00 7,0 1,1 17 9 66 36 SSE 20 0 -
20.04.2018 01:00:00 7,2 2,1 27 15 79 43 SW 20 0 0,0
20.04.2018 00:00:00 7,2 3,3 31 17 74 40 S 20 0 0,0
19.04.2018 23:00:00 8,4 3,7 34 18 62 34 SSE 20 0 0,0
19.04.2018 22:00:00 8,5 4,7 24 13 45 24 S 20 0 0,0
19.04.2018 21:00:00 9,5 4,9 10 5 32 17 S 20 8 0,0
19.04.2018 20:00:00 11,4 3,5 17 9 35 19 S 20 60 -
19.04.2018 19:00:00 12,9 0,3 15 8 34 18 SW 20 60 0,0
19.04.2018 18:00:00 13,0 0,4 16 9 32 17 SSE 20 60 0,0
19.04.2018 17:00:00 12,7 -0,2 18 10 41 22 S 20 60 0,0
19.04.2018 16:00:00 11,9 0,1 21 12 39 21 S 20 60 0,0
19.04.2018 15:00:00 11,6 -0,2 19 11 43 23 S 20 60 0,0
19.04.2018 14:00:00 11,1 -0,3 21 11 54 29 S 20 60 -
19.04.2018 13:00:00 9,9 -0,8 36 19 58 32 S 20 60 0,0
19.04.2018 12:00:00 9,1 -1,6 41 22 57 31 S 20 60 0,0
19.04.2018 11:00:00 8,4 -1,9 40 21 61 33 S 20 60 0,0
19.04.2018 10:00:00 7,6 -0,8 44 24 68 37 S 20 49 0,0
19.04.2018 09:00:00 7,3 -2,7 32 17 61 33 S 20 0 0,0
19.04.2018 08:00:00 7,7 -2,6 31 17 56 30 S 20 0 -
19.04.2018 07:00:00 7,7 -2,3 35 19 68 37 S 20 0 0,0
19.04.2018 06:00:00 7,4 -2,0 42 23 70 38 S 20 0 0,0
19.04.2018 05:00:00 7,2 -1,2 46 25 67 36 S 20 0 0,0
19.04.2018 04:00:00 7,5 -0,9 42 23 60 32 S 20 0 0,0
19.04.2018 03:00:00 7,7 -1,0 48 26 62 34 S 20 0 0,0
19.04.2018 02:00:00 8,1 -0,9 45 24 64 35 S 20 0 -
19.04.2018 01:00:00 8,4 -0,3 40 22 57 31 S 20 0 0,0
19.04.2018 00:00:00 9,0 2,6 37 20 55 30 S 20 0 0,0
18.04.2018 23:00:00 9,2 2,8 31 17 40 21 S 20 0 0,0
18.04.2018 22:00:00 8,7 2,5 26 14 34 19 S 20 0 0,0
18.04.2018 21:00:00 8,1 3,0 27 14 - - S 20 - -
18.04.2018 20:00:00 10,0 3,7 32 17 42 23 S 20 60 -
18.04.2018 19:00:00 9,2 3,2 29 16 36 20 S 20 60 0,0
18.04.2018 18:00:00 10,3 3,1 27 15 39 21 S 20 60 0,0
18.04.2018 17:00:00 9,5 3,1 31 17 47 26 S 20 60 0,0
18.04.2018 16:00:00 10,3 2,7 32 17 43 23 S 20 60 0,0
18.04.2018 15:00:00 9,9 2,3 37 20 48 26 S 20 60 0,0
18.04.2018 14:00:00 10,0 1,9 37 20 53 28 S 20 60 -
18.04.2018 13:00:00 10,0 2,4 39 21 54 29 S 20 60 0,0
18.04.2018 12:00:00 9,8 1,0 40 21 54 29 S 19 60 0,0
18.04.2018 11:00:00 9,2 -0,1 43 23 56 31 S 20 60 0,0
18.04.2018 10:00:00 9,4 -1,9 40 22 51 28 S 17 46 0,0
18.04.2018 09:00:00 8,3 -3,5 42 23 49 26 S 17 0 0,0
18.04.2018 08:00:00 9,0 -4,2 34 19 43 23 S 18 0 -
18.04.2018 07:00:00 8,3 -1,8 35 19 43 23 S 20 0 0,0
18.04.2018 06:00:00 8,8 -1,0 30 16 49 26 S 19 0 0,0
18.04.2018 05:00:00 8,7 -0,6 37 20 51 28 S 20 0 0,0
18.04.2018 04:00:00 8,9 -0,4 41 22 53 28 S 18 0 0,0
18.04.2018 03:00:00 9,6 -1,1 41 22 49 26 S 20 0 0,0
18.04.2018 02:00:00 9,8 -0,1 37 20 46 25 SSE 20 0 -
18.04.2018 01:00:00 9,7 0,3 31 17 39 21 SSE 20 0 0,0
18.04.2018 00:00:00 8,5 1,7 26 14 31 17 SE 20 0 0,0
17.04.2018 23:00:00 8,8 1,7 10 6 19 10 S 20 0 0,0
17.04.2018 22:00:00 8,0 1,2 11 6 19 10 SSE 20 0 0,0
17.04.2018 21:00:00 7,9 0,6 13 7 17 9 SSE 20 6 0,0
17.04.2018 20:00:00 9,5 0,7 8 4 13 7 S 20 60 -
17.04.2018 19:00:00 10,3 0,9 6 3 14 8 S 20 60 0,0
17.04.2018 18:00:00 11,5 0,9 8 4 13 7 S 19 60 0,0
17.04.2018 17:00:00 11,8 -0,3 4 2 11 6 SW 20 60 0,0
17.04.2018 16:00:00 11,5 -2,3 5 3 15 8 S 19 60 0,0
17.04.2018 15:00:00 11,9 -1,9 6 3 17 9 S 19 60 0,0
17.04.2018 14:00:00 12,1 -2,1 6 4 16 8 SSE 20 60 -
17.04.2018 13:00:00 11,8 -3,5 7 4 16 8 S 20 60 0,0
17.04.2018 12:00:00 - - - - - - - - - -
17.04.2018 11:00:00 - - - - - - - - - -
17.04.2018 10:00:00 - - - - - - - - - -
17.04.2018 09:00:00 - - - - - - - - - -
17.04.2018 08:00:00 4,9 -14,9 8 5 21 11 SSW 20 0 -
17.04.2018 07:00:00 3,0 -6,1 7 4 11 6 WSW 20 0 0,0
17.04.2018 06:00:00 3,1 -3,4 8 4 17 9 SSW 20 0 0,0
17.04.2018 05:00:00 3,2 -6,2 11 6 20 11 SW 20 0 0,0
17.04.2018 04:00:00 2,8 -0,8 11 6 18 10 SSW 20 0 0,0
17.04.2018 03:00:00 3,2 -15,8 13 7 25 13 SSW 20 0 0,0

tt = Température de l'air
td = dewpoint
ff = Vitesse du vent
fx = gusts
dd = Direction du vent
vv = visibility
sd = Ensoleillement
rr = Quantités de précipitations

stations d'obs. à proximité